Time,TemperatureF,DewpointF,PressureIn,WindDirection,WindDirectionDegrees,WindSpeedMPH,WindSpeedGustMPH,Humidity,HourlyPrecipIn,Conditions,Clouds,dailyrainin,SoftwareType,DateUTC
2013-03-31 00:00:00,22.5,4.3,30.00,ESE,109,3.0,6.0,45,0.00,CLR,CLR,0.00,WeatherDisplay:10.37,2013-03-31 00:00:00,
2013-03-31 00:10:00,22.1,4.0,30.00,ESE,105,3.0,5.0,45,0.00,CLR,CLR,0.00,WeatherDisplay:10.37,2013-03-31 00:10:00,
2013-03-31 00:20:00,21.9,3.8,30.00,ESE,107,3.0,5.0,45,0.00,CLR,CLR,0.00,WeatherDisplay:10.37,2013-03-31 00:20:00,
2013-03-31 00:30:00,21.7,3.6,30.00,ESE,114,5.0,6.0,45,0.00,CLR,CLR,0.00,WeatherDisplay:10.37,2013-03-31 00:30:00,
2013-03-31 00:40:00,21.9,3.8,30.00,ESE,115,5.0,6.0,45,0.00,CLR,CLR,0.00,WeatherDisplay:10.37,2013-03-31 00:40:00,
2013-03-31 00:50:00,21.9,4.3,30.00,ESE,115,3.0,4.0,46,0.00,CLR,CLR,0.00,WeatherDisplay:10.37,2013-03-31 00:50:00,
2013-03-31 02:00:00,21.7,3.6,30.00,ESE,113,3.0,5.0,45,0.00,CLR,CLR,0.00,WeatherDisplay:10.37,2013-03-31 01:00:00,
2013-03-31 02:05:00,21.6,3.9,30.00,ESE,114,3.0,5.0,46,0.00,CLR,CLR,0.00,WeatherDisplay:10.37,2013-03-31 01:05:00,
2013-03-31 02:10:00,21.4,3.8,30.00,ESE,110,3.0,5.0,46,0.00,CLR,CLR,0.00,WeatherDisplay:10.37,2013-03-31 01:10:00,
2013-03-31 02:20:00,21.2,3.6,30.00,ESE,111,3.0,5.0,46,0.00,CLR,CLR,0.00,WeatherDisplay:10.37,2013-03-31 01:20:00,
2013-03-31 02:30:00,21.0,3.4,30.00,ESE,113,3.0,4.0,46,0.00,CLR,CLR,0.00,WeatherDisplay:10.37,2013-03-31 01:30:00,
2013-03-31 02:40:00,20.8,3.3,30.00,ESE,112,2.0,4.0,46,0.00,CLR,CLR,0.00,WeatherDisplay:10.37,2013-03-31 01:40:00,
2013-03-31 02:50:00,20.5,2.9,30.00,ESE,109,1.0,3.0,46,0.00,CLR,CLR,0.00,WeatherDisplay:10.37,2013-03-31 01:50:00,
2013-03-31 02:55:00,20.3,2.8,30.00,ESE,108,2.0,4.0,46,0.00,CLR,CLR,0.00,WeatherDisplay:10.37,2013-03-31 01:55:00,
2013-03-31 03:00:00,20.3,3.2,30.00,ESE,108,3.0,4.0,47,0.00,CLR,CLR,0.00,WeatherDisplay:10.37,2013-03-31 02:00:00,
2013-03-31 03:10:00,20.3,3.2,30.00,ESE,108,3.0,4.0,47,0.00,CLR,CLR,0.00,WeatherDisplay:10.37,2013-03-31 02:10:00,
2013-03-31 03:20:00,20.0,2.9,30.00,ESE,108,3.0,5.0,47,0.00,CLR,CLR,0.00,WeatherDisplay:10.37,2013-03-31 02:20:00,
2013-03-31 03:30:00,19.8,2.8,30.00,ESE,106,3.0,4.0,47,0.00,CLR,CLR,0.00,WeatherDisplay:10.37,2013-03-31 02:30:00,
2013-03-31 03:40:00,19.6,2.6,30.00,ESE,108,3.0,4.0,47,0.00,CLR,CLR,0.00,WeatherDisplay:10.37,2013-03-31 02:40:00,
2013-03-31 03:50:00,19.6,2.6,30.00,ESE,111,2.0,4.0,47,0.00,CLR,CLR,0.00,WeatherDisplay:10.37,2013-03-31 02:50:00,
2013-03-31 04:00:00,19.6,2.6,30.00,ESE,109,3.0,4.0,47,0.00,CLR,CLR,0.00,WeatherDisplay:10.37,2013-03-31 03:00:00,
2013-03-31 04:10:00,19.4,2.9,30.00,ESE,106,3.0,5.0,48,0.00,CLR,CLR,0.00,WeatherDisplay:10.37,2013-03-31 03:10:00,
2013-03-31 04:20:00,19.4,2.9,30.00,ESE,103,3.0,5.0,48,0.00,CLR,CLR,0.00,WeatherDisplay:10.37,2013-03-31 03:20:00,
2013-03-31 04:30:00,19.4,2.9,30.00,ESE,103,3.0,4.0,48,0.00,CLR,CLR,0.00,WeatherDisplay:10.37,2013-03-31 03:30:00,
2013-03-31 04:40:00,19.2,2.7,30.00,ESE,105,3.0,4.0,48,0.00,CLR,CLR,0.00,WeatherDisplay:10.37,2013-03-31 03:40:00,
2013-03-31 04:50:00,19.2,3.2,30.00,ESE,102,3.0,4.0,49,0.00,CLR,CLR,0.00,WeatherDisplay:10.37,2013-03-31 03:50:00,
2013-03-31 05:00:00,19.2,3.2,30.00,ESE,108,3.0,4.0,49,0.00,CLR,CLR,0.00,WeatherDisplay:10.37,2013-03-31 04:00:00,
2013-03-31 05:05:00,19.2,3.2,30.00,ESE,111,2.0,4.0,49,0.00,CLR,CLR,0.00,WeatherDisplay:10.37,2013-03-31 04:05:00,
2013-03-31 05:10:00,19.2,3.2,30.00,ESE,110,3.0,4.0,49,0.00,CLR,CLR,0.00,WeatherDisplay:10.37,2013-03-31 04:10:00,
2013-03-31 05:20:00,19.2,3.2,30.00,ESE,104,3.0,4.0,49,0.00,CLR,CLR,0.00,WeatherDisplay:10.37,2013-03-31 04:20:00,
2013-03-31 05:30:00,19.1,3.0,30.00,ESE,102,0.0,2.0,49,0.00,CLR,CLR,0.00,WeatherDisplay:10.37,2013-03-31 04:30:00,
2013-03-31 05:35:00,19.0,3.0,30.00,East,101,0.0,0.0,49,0.00,CLR,CLR,0.00,WeatherDisplay:10.37,2013-03-31 04:35:00,
2013-03-31 05:40:00,19.0,3.0,30.00,ESE,102,0.0,0.0,49,0.00,CLR,CLR,0.00,WeatherDisplay:10.37,2013-03-31 04:40:00,
2013-03-31 05:50:00,19.2,3.6,30.00,ESE,108,2.0,4.0,50,0.00,CLR,CLR,0.00,WeatherDisplay:10.37,2013-03-31 04:50:00,
2013-03-31 06:00:00,19.4,3.8,30.00,ESE,109,2.0,4.0,50,0.00,CLR,CLR,0.00,WeatherDisplay:10.37,2013-03-31 05:00:00,
2013-03-31 06:05:00,19.6,3.9,30.00,ESE,108,3.0,4.0,50,0.00,CLR,CLR,0.00,WeatherDisplay:10.37,2013-03-31 05:05:00,
2013-03-31 06:10:00,19.8,4.1,30.00,ESE,109,2.0,3.0,50,0.00,CLR,CLR,0.00,WeatherDisplay:10.37,2013-03-31 05:10:00,
2013-03-31 06:20:00,19.8,4.1,30.00,ESE,109,0.0,3.0,50,0.00,CLR,CLR,0.00,WeatherDisplay:10.37,2013-03-31 05:20:00,
2013-03-31 06:30:00,19.8,4.1,30.00,ESE,109,0.0,0.0,50,0.00,CLR,CLR,0.00,WeatherDisplay:10.37,2013-03-31 05:30:00,
2013-03-31 06:40:00,19.8,4.1,30.00,ESE,108,0.0,0.0,50,0.00,CLR,CLR,0.00,WeatherDisplay:10.37,2013-03-31 05:40:00,
2013-03-31 06:50:00,20.1,4.9,30.00,ESE,109,3.0,4.0,51,0.00,CLR,CLR,0.00,WeatherDisplay:10.37,2013-03-31 05:50:00,
2013-03-31 06:55:00,20.3,5.0,30.00,ESE,112,3.0,4.0,51,0.00,CLR,CLR,0.00,WeatherDisplay:10.37,2013-03-31 05:55:00,
2013-03-31 07:00:00,20.3,5.0,30.00,ESE,110,3.0,4.0,51,0.00,CLR,CLR,0.00,WeatherDisplay:10.37,2013-03-31 06:00:00,
2013-03-31 07:05:00,20.5,5.2,30.00,ESE,106,2.0,4.0,51,0.00,CLR,CLR,0.00,WeatherDisplay:10.37,2013-03-31 06:05:00,
2013-03-31 07:10:00,20.7,5.4,30.00,ESE,106,0.0,3.0,51,0.00,CLR,CLR,0.00,WeatherDisplay:10.37,2013-03-31 06:10:00,
2013-03-31 07:20:00,21.0,6.1,30.00,ESE,111,0.0,3.0,52,0.00,CLR,CLR,0.00,WeatherDisplay:10.37,2013-03-31 06:20:00,
2013-03-31 07:25:00,21.2,6.3,30.00,ESE,110,0.0,0.0,52,0.00,CLR,CLR,0.00,WeatherDisplay:10.37,2013-03-31 06:25:00,
2013-03-31 07:30:00,21.2,6.3,30.00,ESE,111,0.0,0.0,52,0.00,CLR,CLR,0.00,WeatherDisplay:10.37,2013-03-31 06:30:00,
2013-03-31 07:40:00,21.7,6.7,30.00,ESE,104,0.0,0.0,52,0.00,CLR,CLR,0.00,WeatherDisplay:10.37,2013-03-31 06:40:00,
2013-03-31 07:50:00,22.3,7.3,30.00,ESE,109,2.0,3.0,52,0.00,CLR,CLR,0.00,WeatherDisplay:10.37,2013-03-31 06:50:00,
2013-03-31 08:00:00,22.8,7.8,30.00,ESE,109,0.0,2.0,52,0.00,CLR,CLR,0.00,WeatherDisplay:10.37,2013-03-31 07:00:00,
2013-03-31 08:05:00,23.1,8.1,30.00,ESE,108,0.0,0.0,52,0.00,CLR,CLR,0.00,WeatherDisplay:10.37,2013-03-31 07:05:00,
2013-03-31 08:10:00,23.4,8.4,30.00,ESE,108,0.0,0.0,52,0.00,CLR,CLR,0.00,WeatherDisplay:10.37,2013-03-31 07:10:00,
2013-03-31 08:20:00,24.1,9.0,30.00,ESE,109,0.0,0.0,52,0.00,CLR,CLR,0.00,WeatherDisplay:10.37,2013-03-31 07:20:00,
2013-03-31 08:30:00,24.8,10.0,30.00,ESE,109,0.0,0.0,53,0.00,CLR,CLR,0.00,WeatherDisplay:10.37,2013-03-31 07:30:00,
2013-03-31 08:40:00,25.5,10.3,30.03,ESE,108,0.0,0.0,52,0.00,CLR,CLR,0.00,WeatherDisplay:10.37,2013-03-31 07:40:00,
2013-03-31 08:50:00,26.1,11.2,30.01,ESE,108,0.0,0.0,53,0.00,CLR,CLR,0.00,WeatherDisplay:10.37,2013-03-31 07:50:00,
2013-03-31 09:00:00,26.6,11.7,30.00,ESE,108,0.0,0.0,53,0.00,CLR,CLR,0.00,WeatherDisplay:10.37,2013-03-31 08:00:00,
2013-03-31 09:05:00,27.0,11.7,30.00,ESE,108,0.0,0.0,52,0.00,CLR,CLR,0.00,WeatherDisplay:10.37,2013-03-31 08:05:00,
2013-03-31 09:10:00,27.1,11.8,30.00,ESE,108,0.0,0.0,52,0.00,CLR,CLR,0.00,WeatherDisplay:10.37,2013-03-31 08:10:00,
2013-03-31 09:20:00,27.9,12.9,30.00,ESE,108,0.0,0.0,53,0.00,CLR,CLR,0.00,WeatherDisplay:10.37,2013-03-31 08:20:00,
2013-03-31 09:30:00,28.8,13.8,30.00,ESE,103,2.0,4.0,53,0.00,CLR,CLR,0.00,WeatherDisplay:10.37,2013-03-31 08:30:00,
2013-03-31 09:40:00,30.1,15.5,30.00,East,101,2.0,5.0,54,0.00,CLR,CLR,0.00,WeatherDisplay:10.37,2013-03-31 08:40:00,
2013-03-31 09:50:00,31.4,15.8,30.00,ESE,105,0.0,4.0,52,0.00,CLR,CLR,0.00,WeatherDisplay:10.37,2013-03-31 08:50:00,
2013-03-31 10:00:00,32.5,15.9,30.00,ESE,108,3.0,6.0,50,0.00,CLR,CLR,0.00,WeatherDisplay:10.37,2013-03-31 09:00:00,
2013-03-31 10:05:00,33.1,16.0,30.00,ESE,123,2.0,4.0,49,0.00,CLR,CLR,0.00,WeatherDisplay:10.37,2013-03-31 09:05:00,
2013-03-31 10:10:00,33.3,14.2,30.00,SE,128,3.0,6.0,45,0.00,CLR,CLR,0.00,WeatherDisplay:10.37,2013-03-31 09:10:00,
2013-03-31 10:20:00,34.2,14.0,30.00,SE,144,1.0,6.0,43,0.00,CLR,CLR,0.00,WeatherDisplay:10.37,2013-03-31 09:20:00,
2013-03-31 10:30:00,34.9,13.0,30.00,SE,124,3.0,6.0,40,0.00,CLR,CLR,0.00,WeatherDisplay:10.37,2013-03-31 09:30:00,
2013-03-31 10:40:00,35.4,9.8,30.00,ESE,109,2.0,6.0,34,0.00,CLR,CLR,0.00,WeatherDisplay:10.37,2013-03-31 09:40:00,
2013-03-31 10:50:00,35.8,7.3,30.00,SE,130,2.0,7.0,30,0.00,CLR,CLR,0.00,WeatherDisplay:10.37,2013-03-31 09:50:00,
2013-03-31 11:00:00,36.7,8.1,30.00,SSE,153,1.0,3.0,30,0.00,CLR,CLR,0.00,WeatherDisplay:10.37,2013-03-31 10:00:00,
2013-03-31 11:10:00,37.6,8.1,30.00,SE,137,3.0,8.0,29,0.00,CLR,CLR,0.00,WeatherDisplay:10.37,2013-03-31 10:10:00,
2013-03-31 11:20:00,37.8,5.9,30.00,SE,129,3.0,6.0,26,0.00,CLR,CLR,0.00,WeatherDisplay:10.37,2013-03-31 10:20:00,
2013-03-31 11:30:00,38.3,6.4,30.00,ESE,102,0.0,6.0,26,0.00,CLR,CLR,0.00,WeatherDisplay:10.37,2013-03-31 10:30:00,
2013-03-31 11:40:00,39.2,7.1,30.00,ESE,120,2.0,6.0,26,0.00,CLR,CLR,0.00,WeatherDisplay:10.37,2013-03-31 10:40:00,
2013-03-31 11:50:00,39.4,4.6,30.00,SE,126,3.0,6.0,23,0.00,CLR,CLR,0.00,WeatherDisplay:10.37,2013-03-31 10:50:00,
2013-03-31 12:00:00,41.1,6.0,30.00,SSE,153,3.0,7.0,23,0.00,CLR,CLR,0.00,WeatherDisplay:10.37,2013-03-31 11:00:00,
2013-03-31 12:05:00,41.5,6.4,30.00,South,169,3.0,6.0,23,0.00,CLR,CLR,0.00,WeatherDisplay:10.37,2013-03-31 11:05:00,
2013-03-31 12:10:00,42.1,6.9,30.00,SSE,156,2.0,6.0,23,0.00,CLR,CLR,0.00,WeatherDisplay:10.37,2013-03-31 11:10:00,
2013-03-31 12:20:00,42.3,7.1,30.00,SSE,155,2.0,6.0,23,0.00,CLR,CLR,0.00,WeatherDisplay:10.37,2013-03-31 11:20:00,
2013-03-31 12:25:00,41.4,6.3,30.00,ESE,112,3.0,8.0,23,0.00,CLR,CLR,0.00,WeatherDisplay:10.37,2013-03-31 11:25:00,
2013-03-31 12:30:00,40.3,5.4,30.00,ESE,105,3.0,6.0,23,0.00,CLR,CLR,0.00,WeatherDisplay:10.37,2013-03-31 11:30:00,
2013-03-31 12:40:00,39.7,4.9,30.00,ESE,109,3.0,6.0,23,0.00,CLR,CLR,0.00,WeatherDisplay:10.37,2013-03-31 11:40:00,
2013-03-31 12:50:00,40.7,5.7,30.00,SE,140,5.0,8.0,23,0.00,CLR,CLR,0.00,WeatherDisplay:10.37,2013-03-31 11:50:00,
2013-03-31 13:00:00,41.4,6.3,30.00,East,99,3.0,9.0,23,0.00,CLR,CLR,0.00,WeatherDisplay:10.37,2013-03-31 12:00:00,
2013-03-31 13:10:00,41.2,6.1,30.00,SSE,155,3.0,6.0,23,0.00,CLR,CLR,0.00,WeatherDisplay:10.37,2013-03-31 12:10:00,
2013-03-31 13:20:00,41.9,6.7,30.00,SSE,152,3.0,8.0,23,0.00,CLR,CLR,0.00,WeatherDisplay:10.37,2013-03-31 12:20:00,
2013-03-31 13:30:00,41.7,6.6,30.00,SSE,147,3.0,6.0,23,0.00,CLR,CLR,0.00,WeatherDisplay:10.37,2013-03-31 12:30:00,
2013-03-31 13:40:00,42.1,6.9,30.00,SSE,157,2.0,6.0,23,0.00,CLR,CLR,0.00,WeatherDisplay:10.37,2013-03-31 12:40:00,
2013-03-31 13:50:00,41.7,6.6,30.00,South,171,3.0,8.0,23,0.00,CLR,CLR,0.00,WeatherDisplay:10.37,2013-03-31 12:50:00,
2013-03-31 14:00:00,41.6,6.4,30.00,SE,142,5.0,8.0,23,0.00,CLR,CLR,0.00,WeatherDisplay:10.37,2013-03-31 13:00:00,
2013-03-31 14:10:00,41.9,6.7,30.00,SSE,153,3.0,7.0,23,0.00,CLR,CLR,0.00,WeatherDisplay:10.37,2013-03-31 13:10:00,
2013-03-31 14:20:00,41.7,6.5,30.00,SE,140,3.0,8.0,23,0.00,CLR,CLR,0.00,WeatherDisplay:10.37,2013-03-31 13:20:00,
2013-03-31 14:30:00,40.3,5.3,30.00,ESE,105,6.0,8.0,23,0.00,CLR,CLR,0.00,WeatherDisplay:10.37,2013-03-31 13:30:00,
2013-03-31 14:40:00,39.4,4.6,30.00,ESE,110,3.0,8.0,23,0.00,CLR,CLR,0.00,WeatherDisplay:10.37,2013-03-31 13:40:00,
2013-03-31 14:50:00,39.0,5.2,30.00,SE,125,2.0,6.0,24,0.00,CLR,CLR,0.00,WeatherDisplay:10.37,2013-03-31 13:50:00,
2013-03-31 15:00:00,38.8,5.1,30.00,ESE,103,1.0,6.0,24,0.00,CLR,CLR,0.00,WeatherDisplay:10.37,2013-03-31 14:00:00,
2013-03-31 15:10:00,38.1,4.5,30.00,ESE,109,6.0,8.0,24,0.00,CLR,CLR,0.00,WeatherDisplay:10.37,2013-03-31 14:10:00,
2013-03-31 15:20:00,37.9,4.3,30.00,East,100,5.0,8.0,24,0.00,CLR,CLR,0.00,WeatherDisplay:10.37,2013-03-31 14:20:00,
2013-03-31 15:30:00,38.1,4.4,30.00,ESE,108,8.0,10.0,24,0.00,CLR,CLR,0.00,WeatherDisplay:10.37,2013-03-31 14:30:00,
2013-03-31 15:40:00,38.1,4.4,30.00,SE,130,6.0,8.0,24,0.00,CLR,CLR,0.00,WeatherDisplay:10.37,2013-03-31 14:40:00,
2013-03-31 15:50:00,39.4,4.6,30.00,SE,128,5.0,8.0,23,0.00,CLR,CLR,0.00,WeatherDisplay:10.37,2013-03-31 14:50:00,
2013-03-31 16:00:00,39.7,4.9,30.00,ESE,122,7.0,8.0,23,0.00,CLR,CLR,0.00,WeatherDisplay:10.37,2013-03-31 15:00:00,
2013-03-31 16:05:00,39.7,4.9,30.00,SE,142,5.0,6.0,23,0.00,CLR,CLR,0.00,WeatherDisplay:10.37,2013-03-31 15:05:00,
2013-03-31 16:10:00,39.7,4.9,30.00,ESE,115,5.0,8.0,23,0.00,CLR,CLR,0.00,WeatherDisplay:10.37,2013-03-31 15:10:00,
2013-03-31 16:20:00,39.4,4.6,30.00,ESE,106,5.0,9.0,23,0.00,CLR,CLR,0.00,WeatherDisplay:10.37,2013-03-31 15:20:00,
2013-03-31 16:30:00,39.7,4.9,29.97,ESE,114,2.0,6.0,23,0.00,CLR,CLR,0.00,WeatherDisplay:10.37,2013-03-31 15:30:00,
2013-03-31 16:40:00,40.0,5.1,29.97,ESE,107,6.0,8.0,23,0.00,CLR,CLR,0.00,WeatherDisplay:10.37,2013-03-31 15:40:00,
2013-03-31 16:50:00,38.9,5.1,29.97,ESE,102,6.0,6.0,24,0.00,CLR,CLR,0.00,WeatherDisplay:10.37,2013-03-31 15:50:00,
2013-03-31 17:00:00,38.5,4.8,29.97,ESE,106,5.0,6.0,24,0.00,CLR,CLR,0.00,WeatherDisplay:10.37,2013-03-31 16:00:00,
2013-03-31 17:05:00,38.3,4.6,29.99,ESE,102,3.0,6.0,24,0.00,CLR,CLR,0.00,WeatherDisplay:10.37,2013-03-31 16:05:00,
2013-03-31 17:10:00,38.1,4.4,30.00,East,96,3.0,7.0,24,0.00,CLR,CLR,0.00,WeatherDisplay:10.37,2013-03-31 16:10:00,
2013-03-31 17:20:00,37.9,4.3,29.99,ESE,108,5.0,8.0,24,0.00,CLR,CLR,0.00,WeatherDisplay:10.37,2013-03-31 16:20:00,
2013-03-31 17:30:00,37.6,4.0,29.97,East,98,5.0,6.0,24,0.00,CLR,CLR,0.00,WeatherDisplay:10.37,2013-03-31 16:30:00,
2013-03-31 17:40:00,37.4,3.8,29.97,ESE,108,5.0,9.0,24,0.00,CLR,CLR,0.00,WeatherDisplay:10.37,2013-03-31 16:40:00,
2013-03-31 17:50:00,37.2,3.7,29.97,East,96,2.0,6.0,24,0.00,CLR,CLR,0.00,WeatherDisplay:10.37,2013-03-31 16:50:00,
2013-03-31 17:55:00,37.2,3.7,29.97,ESE,108,5.0,6.0,24,0.00,CLR,CLR,0.00,WeatherDisplay:10.37,2013-03-31 16:55:00,
2013-03-31 18:05:00,37.0,3.5,29.97,East,98,3.0,8.0,24,0.00,CLR,CLR,0.00,WeatherDisplay:10.37,2013-03-31 17:05:00,
2013-03-31 18:10:00,36.9,3.4,29.97,East,99,3.0,8.0,24,0.00,CLR,CLR,0.00,WeatherDisplay:10.37,2013-03-31 17:10:00,
2013-03-31 18:20:00,36.9,3.4,29.97,ESE,107,3.0,6.0,24,0.00,CLR,CLR,0.00,WeatherDisplay:10.37,2013-03-31 17:20:00,
2013-03-31 18:30:00,36.5,3.1,29.97,ESE,107,5.0,8.0,24,0.00,CLR,CLR,0.00,WeatherDisplay:10.37,2013-03-31 17:30:00,
2013-03-31 18:40:00,36.1,5.3,29.97,East,94,3.0,8.0,27,0.00,CLR,CLR,0.00,WeatherDisplay:10.37,2013-03-31 17:40:00,
2013-03-31 18:45:00,36.0,5.2,29.97,East,94,1.0,8.0,27,0.00,CLR,CLR,0.00,WeatherDisplay:10.37,2013-03-31 17:45:00,
2013-03-31 18:50:00,35.8,5.0,29.97,East,100,5.0,6.0,27,0.00,CLR,CLR,0.00,WeatherDisplay:10.37,2013-03-31 17:50:00,
2013-03-31 18:55:00,35.8,5.0,29.97,ESE,102,2.0,6.0,27,0.00,CLR,CLR,0.00,WeatherDisplay:10.37,2013-03-31 17:55:00,
2013-03-31 19:00:00,35.6,4.8,29.97,East,99,2.0,4.0,27,0.00,CLR,CLR,0.00,WeatherDisplay:10.37,2013-03-31 18:00:00,
2013-03-31 19:10:00,35.4,4.7,29.97,ESE,103,5.0,6.0,27,0.00,CLR,CLR,0.00,WeatherDisplay:10.37,2013-03-31 18:10:00,
2013-03-31 19:20:00,35.2,6.8,29.95,ESE,104,5.0,8.0,30,0.00,CLR,CLR,0.00,WeatherDisplay:10.37,2013-03-31 18:20:00,
2013-03-31 19:30:00,35.1,6.7,29.94,ESE,111,5.0,9.0,30,0.00,CLR,CLR,0.00,WeatherDisplay:10.37,2013-03-31 18:30:00,
2013-03-31 19:40:00,34.9,6.5,29.97,ESE,114,5.0,9.0,30,0.00,CLR,CLR,0.00,WeatherDisplay:10.37,2013-03-31 18:40:00,
2013-03-31 19:50:00,34.9,6.5,29.97,ESE,105,5.0,6.0,30,0.00,CLR,CLR,0.00,WeatherDisplay:10.37,2013-03-31 18:50:00,
2013-03-31 20:00:00,34.7,7.1,29.97,East,101,3.0,6.0,31,0.00,CLR,CLR,0.00,WeatherDisplay:10.37,2013-03-31 19:00:00,
2013-03-31 20:05:00,34.5,6.9,29.97,ESE,102,3.0,6.0,31,0.00,CLR,CLR,0.00,WeatherDisplay:10.37,2013-03-31 19:05:00,
2013-03-31 20:10:00,34.5,6.9,29.97,East,101,3.0,6.0,31,0.00,CLR,CLR,0.00,WeatherDisplay:10.37,2013-03-31 19:10:00,
2013-03-31 20:20:00,34.2,6.6,29.97,ESE,105,3.0,8.0,31,0.00,CLR,CLR,0.00,WeatherDisplay:10.37,2013-03-31 19:20:00,
2013-03-31 20:30:00,33.8,6.3,29.97,East,95,3.0,6.0,31,0.00,CLR,CLR,0.00,WeatherDisplay:10.37,2013-03-31 19:30:00,
2013-03-31 20:40:00,33.4,6.7,29.97,ESE,103,5.0,8.0,32,0.00,CLR,CLR,0.00,WeatherDisplay:10.37,2013-03-31 19:40:00,
2013-03-31 20:50:00,33.3,6.5,29.97,ESE,106,2.0,6.0,32,0.00,CLR,CLR,0.00,WeatherDisplay:10.37,2013-03-31 19:50:00,
2013-03-31 21:00:00,33.1,6.4,29.97,ESE,107,3.0,6.0,32,0.00,CLR,CLR,0.00,WeatherDisplay:10.37,2013-03-31 20:00:00,
2013-03-31 21:05:00,32.9,6.9,29.97,ESE,105,3.0,6.0,33,0.00,CLR,CLR,0.00,WeatherDisplay:10.37,2013-03-31 20:05:00,
2013-03-31 21:10:00,32.9,6.9,29.97,ESE,106,3.0,8.0,33,0.00,CLR,CLR,0.00,WeatherDisplay:10.37,2013-03-31 20:10:00,
2013-03-31 21:20:00,32.7,6.7,29.97,ESE,103,3.0,8.0,33,0.00,CLR,CLR,0.00,WeatherDisplay:10.37,2013-03-31 20:20:00,
2013-03-31 21:25:00,32.5,6.6,29.97,ESE,106,3.0,8.0,33,0.00,CLR,CLR,0.00,WeatherDisplay:10.37,2013-03-31 20:25:00,
2013-03-31 21:31:00,32.5,6.6,29.97,ESE,110,5.0,8.0,33,0.00,CLR,CLR,0.00,WeatherDisplay:10.37,2013-03-31 20:31:00,
2013-03-31 21:36:00,32.4,6.4,29.97,ESE,114,2.0,8.0,33,0.00,CLR,CLR,0.00,WeatherDisplay:10.37,2013-03-31 20:36:00,
2013-03-31 21:45:00,32.2,6.3,29.97,East,99,3.0,6.0,33,0.00,CLR,CLR,0.00,WeatherDisplay:10.37,2013-03-31 20:45:00,
2013-03-31 21:50:00,32.0,5.4,29.97,East,101,5.0,7.0,32,0.00,CLR,CLR,0.00,WeatherDisplay:10.37,2013-03-31 20:50:00,
2013-03-31 22:00:00,31.6,5.1,29.97,East,98,3.0,6.0,32,0.00,CLR,CLR,0.00,WeatherDisplay:10.37,2013-03-31 21:00:00,
2013-03-31 22:05:00,31.5,4.9,29.97,ESE,107,3.0,6.0,32,0.00,CLR,CLR,0.00,WeatherDisplay:10.37,2013-03-31 21:05:00,
2013-03-31 22:10:00,31.3,4.8,29.97,ESE,109,3.0,6.0,32,0.00,CLR,CLR,0.00,WeatherDisplay:10.37,2013-03-31 21:10:00,
2013-03-31 22:20:00,31.1,5.3,29.97,East,96,3.0,6.0,33,0.00,CLR,CLR,0.00,WeatherDisplay:10.37,2013-03-31 21:20:00,
2013-03-31 22:30:00,30.7,5.0,29.97,East,90,5.0,6.0,33,0.00,CLR,CLR,0.00,WeatherDisplay:10.37,2013-03-31 21:30:00,
2013-03-31 22:40:00,30.5,4.8,29.97,East,96,3.0,6.0,33,0.00,CLR,CLR,0.00,WeatherDisplay:10.37,2013-03-31 21:40:00,
2013-03-31 22:50:00,30.2,5.8,29.97,East,96,3.0,6.0,35,0.00,CLR,CLR,0.00,WeatherDisplay:10.37,2013-03-31 21:50:00,
2013-03-31 23:00:00,30.0,5.6,29.97,East,94,5.0,6.0,35,0.00,CLR,CLR,0.00,WeatherDisplay:10.37,2013-03-31 22:00:00,
2013-03-31 23:05:00,29.8,5.5,29.97,East,98,6.0,6.0,35,0.00,CLR,CLR,0.00,WeatherDisplay:10.37,2013-03-31 22:05:00,
2013-03-31 23:10:00,29.8,6.1,29.97,East,94,5.0,7.0,36,0.00,CLR,CLR,0.00,WeatherDisplay:10.37,2013-03-31 22:10:00,
2013-03-31 23:20:00,29.7,5.9,29.97,East,101,5.0,6.0,36,0.00,CLR,CLR,0.00,WeatherDisplay:10.37,2013-03-31 22:20:00,
2013-03-31 23:30:00,29.7,6.5,29.97,East,98,6.0,6.0,37,0.00,CLR,CLR,0.00,WeatherDisplay:10.37,2013-03-31 22:30:00,
2013-03-31 23:40:00,29.7,5.9,30.00,East,98,5.0,8.0,36,0.00,CLR,CLR,0.00,WeatherDisplay:10.37,2013-03-31 22:40:00,
2013-03-31 23:50:00,29.7,5.9,30.00,East,95,5.0,8.0,36,0.00,CLR,CLR,0.00,WeatherDisplay:10.37,2013-03-31 22:50:00,
2013-03-31 23:55:00,29.7,5.3,30.00,East,94,5.0,6.0,35,0.00,CLR,CLR,0.00,WeatherDisplay:10.37,2013-03-31 22:55:00,